Time;durP1;ratioP1;P1;durP2;ratioP2;P2;SDS_P1;SDS_P2;PMS_P1;PMS_P2;Temp;Humidity;BMP_temperature;BMP_pressure;BME280_temperature;BME280_humidity;BME280_pressure;Samples;Min_cycle;Max_cycle;Signal;HPM_P1;HPM_P2
2022/10/28 00:01:53;;;;;;;62.72;45.60;;;;;;;;;;5119616;27;20072;-76
2022/10/28 00:04:19;;;;;;;38.33;31.88;;;;;;;;;;5120698;27;20022;-77
2022/10/28 00:06:44;;;;;;;26.88;19.70;;;;;;;;;;5120132;27;20042;-76
2022/10/28 00:09:09;;;;;;;24.25;20.80;;;;;;;;;;5123670;27;20034;-76
2022/10/28 00:11:35;;;;;;;17.25;13.50;;;;;;;;;;5122098;27;20019;-76
2022/10/28 00:14:02;;;;;;;10.75;8.48;;;;;;;;;;5120359;27;20023;-75
2022/10/28 00:16:29;;;;;;;10.38;8.02;;;;;;;;;;5122001;27;20031;-77
2022/10/28 00:18:56;;;;;;;11.55;7.97;;;;;;;;;;5119980;27;20023;-75
2022/10/28 00:21:23;;;;;;;19.48;15.23;;;;;;;;;;5100077;27;20015;-77
2022/10/28 00:23:49;;;;;;;24.48;18.48;;;;;;;;;;5099850;27;20439;-77
2022/10/28 00:26:19;;;;;;;17.70;13.38;;;;;;;;;;5122958;27;20023;-76
2022/10/28 00:28:46;;;;;;;15.75;11.95;;;;;;;;;;5105080;27;20066;-76
2022/10/28 00:31:12;;;;;;;11.02;8.55;;;;;;;;;;5115977;27;20117;-75
2022/10/28 00:33:38;;;;;;;8.85;7.53;;;;;;;;;;5120575;27;20028;-75
2022/10/28 00:36:22;;;;;;;12.10;8.82;;;;;;;;;;5116267;27;20092;-77
2022/10/28 00:38:49;;;;;;;12.35;10.05;;;;;;;;;;5098098;27;20409;-76
2022/10/28 00:41:17;;;;;;;12.07;8.15;;;;;;;;;;5116996;27;20474;-76
2022/10/28 00:43:53;;;;;;;13.93;10.30;;;;;;;;;;5116139;27;20118;-76
2022/10/28 00:46:24;;;;;;;16.10;12.35;;;;;;;;;;5094201;27;20027;-76
2022/10/28 00:48:51;;;;;;;21.10;16.05;;;;;;;;;;5117548;27;20063;-77
2022/10/28 00:51:17;;;;;;;18.15;12.07;;;;;;;;;;5112806;27;20028;-76
2022/10/28 00:53:44;;;;;;;13.98;10.75;;;;;;;;;;5118774;27;20027;-75
2022/10/28 00:56:10;;;;;;;14.95;11.52;;;;;;;;;;5117832;27;20043;-76
2022/10/28 00:58:35;;;;;;;19.73;12.02;;;;;;;;;;5108599;27;20042;-75
2022/10/28 01:01:01;;;;;;;15.43;11.20;;;;;;;;;;5118381;27;20019;-76
2022/10/28 01:03:26;;;;;;;18.40;12.15;;;;;;;;;;5114778;27;20412;-74
2022/10/28 01:05:52;;;;;;;18.92;13.70;;;;;;;;;;5115783;27;20023;-73
2022/10/28 01:08:17;;;;;;;21.48;15.25;;;;;;;;;;5118350;27;20031;-75
2022/10/28 01:10:45;;;;;;;24.33;16.58;;;;;;;;;;5118659;27;20031;-74
2022/10/28 01:13:19;;;;;;;17.23;13.18;;;;;;;;;;5114705;27;20102;-73
2022/10/28 01:15:50;;;;;;;19.65;15.40;;;;;;;;;;5095355;27;20023;-73
2022/10/28 01:18:26;;;;;;;31.20;18.05;;;;;;;;;;5099149;27;20084;-75
2022/10/28 01:21:07;;;;;;;16.60;12.48;;;;;;;;;;5119622;27;20134;-78
2022/10/28 01:23:51;;;;;;;21.05;14.85;;;;;;;;;;5119008;27;20022;-75
2022/10/28 01:26:29;;;;;;;24.33;16.25;;;;;;;;;;5121642;27;20431;-74
2022/10/28 01:29:07;;;;;;;20.98;14.48;;;;;;;;;;5117189;27;20042;-75
2022/10/28 01:31:38;;;;;;;15.73;11.40;;;;;;;;;;5115886;27;20015;-76
2022/10/28 01:34:10;;;;;;;16.88;12.25;;;;;;;;;;5118859;27;20501;-77
2022/10/28 01:36:35;;;;;;;27.40;19.48;;;;;;;;;;5098986;27;20176;-76
2022/10/28 01:39:20;;;;;;;24.92;18.77;;;;;;;;;;5114692;27;20106;-78
2022/10/28 01:41:54;;;;;;;23.73;14.75;;;;;;;;;;5121623;27;20463;-76
2022/10/28 01:44:25;;;;;;;17.77;12.52;;;;;;;;;;5101315;27;20403;-74
2022/10/28 01:47:10;;;;;;;19.40;14.10;;;;;;;;;;5120359;27;20054;-76
2022/10/28 01:49:46;;;;;;;18.38;13.07;;;;;;;;;;5100183;27;20031;-77
2022/10/28 01:52:13;;;;;;;15.45;13.07;;;;;;;;;;5115414;27;20078;-76
2022/10/28 01:54:40;;;;;;;17.30;11.50;;;;;;;;;;5117877;27;20115;-77
2022/10/28 01:57:05;;;;;;;16.33;10.40;;;;;;;;;;5117819;27;20045;-75
2022/10/28 01:59:31;;;;;;;28.73;16.55;;;;;;;;;;5118294;27;20422;-77
2022/10/28 02:01:57;;;;;;;57.40;31.25;;;;;;;;;;5117164;27;20034;-76
2022/10/28 02:04:22;;;;;;;69.55;38.75;;;;;;;;;;5116081;27;20023;-77
2022/10/28 02:06:53;;;;;;;61.58;35.58;;;;;;;;;;5102601;27;20034;-75
2022/10/28 02:09:18;;;;;;;43.65;27.42;;;;;;;;;;5115695;27;20031;-77
2022/10/28 02:11:43;;;;;;;42.55;27.23;;;;;;;;;;5101335;27;20075;-77
2022/10/28 02:14:27;;;;;;;47.15;26.67;;;;;;;;;;5112521;27;20075;-76
2022/10/28 02:16:59;;;;;;;26.02;17.15;;;;;;;;;;5117939;27;20031;-76
2022/10/28 02:19:34;;;;;;;17.65;12.63;;;;;;;;;;5111400;27;20015;-75
2022/10/28 02:21:59;;;;;;;13.95;10.10;;;;;;;;;;5098391;27;20093;-75
2022/10/28 02:24:35;;;;;;;19.88;12.15;;;;;;;;;;5111568;27;20031;-76
2022/10/28 02:27:12;;;;;;;22.10;13.70;;;;;;;;;;5118058;27;20056;-75
2022/10/28 02:29:40;;;;;;;20.58;12.95;;;;;;;;;;5115362;27;20030;-76
2022/10/28 02:32:07;;;;;;;19.60;14.50;;;;;;;;;;5111157;27;20342;-77
2022/10/28 02:34:36;;;;;;;24.27;15.80;;;;;;;;;;5118125;27;20027;-77
2022/10/28 02:37:04;;;;;;;20.92;15.68;;;;;;;;;;5114884;27;20039;-76
2022/10/28 02:39:33;;;;;;;25.77;17.25;;;;;;;;;;5116076;27;20117;-76
2022/10/28 02:42:20;;;;;;;24.02;15.63;;;;;;;;;;5114820;27;20118;-77
2022/10/28 02:44:48;;;;;;;22.20;15.90;;;;;;;;;;5115809;27;20461;-76
2022/10/28 02:47:17;;;;;;;20.70;14.32;;;;;;;;;;5112119;28;20063;-75
2022/10/28 02:49:45;;;;;;;21.40;14.32;;;;;;;;;;5098879;28;20034;-76
2022/10/28 02:52:11;;;;;;;19.48;15.40;;;;;;;;;;5120958;28;20499;-75
2022/10/28 02:54:40;;;;;;;21.55;16.65;;;;;;;;;;5119992;28;20037;-75
2022/10/28 02:57:11;;;;;;;15.77;11.82;;;;;;;;;;5117532;28;20081;-76
2022/10/28 02:59:36;;;;;;;14.82;9.70;;;;;;;;;;5119426;28;20030;-76
2022/10/28 03:02:04;;;;;;;13.52;9.68;;;;;;;;;;5118221;28;20031;-77
2022/10/28 03:04:29;;;;;;;12.35;8.85;;;;;;;;;;5120198;28;20077;-77
2022/10/28 03:06:54;;;;;;;12.65;8.45;;;;;;;;;;5119026;28;20498;-75
2022/10/28 03:09:20;;;;;;;14.10;11.52;;;;;;;;;;5115917;28;20509;-75
2022/10/28 03:11:45;;;;;;;19.98;11.98;;;;;;;;;;5120406;28;20457;-76
2022/10/28 03:14:10;;;;;;;10.07;8.43;;;;;;;;;;5117515;28;20331;-76
2022/10/28 03:16:36;;;;;;;11.48;8.57;;;;;;;;;;5116873;28;20056;-77
2022/10/28 03:19:01;;;;;;;13.27;9.23;;;;;;;;;;5099450;28;20132;-75
2022/10/28 03:21:26;;;;;;;12.32;9.30;;;;;;;;;;5113123;28;20023;-76
2022/10/28 03:23:52;;;;;;;18.17;11.23;;;;;;;;;;5116835;28;20030;-74
2022/10/28 03:26:17;;;;;;;12.80;10.45;;;;;;;;;;5109870;28;20011;-75
2022/10/28 03:28:42;;;;;;;10.82;8.15;;;;;;;;;;5090437;28;20027;-76
2022/10/28 03:31:08;;;;;;;10.43;6.75;;;;;;;;;;5119548;28;20031;-76
2022/10/28 03:33:33;;;;;;;11.13;8.65;;;;;;;;;;5120882;27;20065;-77
2022/10/28 03:35:58;;;;;;;24.10;16.13;;;;;;;;;;5101282;27;20055;-75
2022/10/28 03:38:24;;;;;;;22.60;15.57;;;;;;;;;;5113012;27;20031;-75
2022/10/28 03:40:49;;;;;;;26.90;19.05;;;;;;;;;;5114189;27;20030;-74
2022/10/28 03:43:15;;;;;;;29.35;19.35;;;;;;;;;;5122927;27;20023;-78
2022/10/28 03:45:40;;;;;;;24.52;17.20;;;;;;;;;;5098874;27;20123;-76
2022/10/28 03:48:06;;;;;;;24.33;15.77;;;;;;;;;;5119953;27;20070;-77
2022/10/28 03:50:31;;;;;;;19.38;13.80;;;;;;;;;;5121763;27;20026;-78
2022/10/28 03:52:56;;;;;;;17.02;12.88;;;;;;;;;;5115712;27;20040;-76
2022/10/28 03:55:24;;;;;;;18.63;11.90;;;;;;;;;;5108578;27;20035;-78
2022/10/28 03:57:49;;;;;;;99.13;56.08;;;;;;;;;;5106058;27;20039;-77
2022/10/28 04:00:15;;;;;;;124.20;72.70;;;;;;;;;;5118146;27;20031;-76
2022/10/28 04:02:40;;;;;;;28.75;17.23;;;;;;;;;;5120814;27;23060;-76
2022/10/28 04:05:06;;;;;;;11.88;9.07;;;;;;;;;;5112695;27;20081;-75
2022/10/28 04:07:31;;;;;;;9.23;7.43;;;;;;;;;;5104323;27;20092;-76
2022/10/28 04:09:56;;;;;;;9.27;6.30;;;;;;;;;;5083766;27;20034;-76
2022/10/28 04:12:22;;;;;;;8.60;6.47;;;;;;;;;;5102400;27;20051;-75
2022/10/28 04:14:47;;;;;;;11.73;7.32;;;;;;;;;;5105019;27;20062;-77
2022/10/28 04:17:13;;;;;;;9.82;7.80;;;;;;;;;;5103709;27;20038;-76
2022/10/28 04:19:38;;;;;;;14.98;9.82;;;;;;;;;;5101189;27;20031;-77
2022/10/28 04:22:03;;;;;;;14.05;10.20;;;;;;;;;;5106867;27;20020;-75
2022/10/28 04:24:29;;;;;;;11.48;9.35;;;;;;;;;;5108414;27;20047;-79
2022/10/28 04:26:54;;;;;;;20.45;15.95;;;;;;;;;;5119124;27;20357;-78
2022/10/28 04:29:19;;;;;;;20.45;14.60;;;;;;;;;;5086045;27;20059;-74
2022/10/28 04:31:45;;;;;;;19.90;14.60;;;;;;;;;;5119345;27;20031;-76
2022/10/28 04:34:10;;;;;;;20.58;14.07;;;;;;;;;;5120278;27;20019;-76
2022/10/28 04:36:35;;;;;;;26.63;15.90;;;;;;;;;;5119127;27;20040;-79
2022/10/28 04:39:01;;;;;;;19.48;14.20;;;;;;;;;;5111871;27;20027;-77
2022/10/28 04:41:26;;;;;;;22.10;14.75;;;;;;;;;;5095151;27;20712;-78
2022/10/28 04:43:53;;;;;;;24.63;17.17;;;;;;;;;;5116919;27;20031;-78
2022/10/28 04:46:19;;;;;;;24.15;17.10;;;;;;;;;;5108379;27;20038;-77
2022/10/28 04:48:45;;;;;;;23.45;16.92;;;;;;;;;;5077297;28;20036;-77
2022/10/28 04:51:10;;;;;;;26.20;18.15;;;;;;;;;;5057755;28;20035;-76
2022/10/28 04:53:36;;;;;;;28.25;20.30;;;;;;;;;;5089566;28;20065;-75
2022/10/28 04:56:01;;;;;;;25.00;18.45;;;;;;;;;;5098777;28;20031;-75
2022/10/28 04:58:26;;;;;;;34.33;23.15;;;;;;;;;;5096673;28;20035;-75
2022/10/28 05:00:52;;;;;;;33.28;21.27;;;;;;;;;;5096201;28;20030;-77
2022/10/28 05:03:17;;;;;;;24.58;18.10;;;;;;;;;;5097463;28;20035;-74
2022/10/28 05:05:43;;;;;;;32.45;21.15;;;;;;;;;;5100633;28;20034;-76
2022/10/28 05:08:08;;;;;;;33.20;21.88;;;;;;;;;;5100395;28;20454;-75
2022/10/28 05:10:33;;;;;;;32.70;20.23;;;;;;;;;;5084460;28;20099;-77
2022/10/28 05:12:59;;;;;;;29.33;20.33;;;;;;;;;;5099092;28;20032;-76
2022/10/28 05:15:25;;;;;;;43.67;35.08;;;;;;;;;;5101732;28;20334;-77
2022/10/28 05:17:51;;;;;;;62.38;45.60;;;;;;;;;;5099610;28;20432;-75
2022/10/28 05:20:16;;;;;;;60.55;45.38;;;;;;;;;;5101140;28;20111;-76
2022/10/28 05:22:49;;;;;;;80.10;62.30;;;;;;;;;;5098565;28;20423;-77
2022/10/28 05:25:15;;;;;;;81.07;60.10;;;;;;;;;;5096022;28;20502;-75
2022/10/28 05:27:40;;;;;;;113.40;90.70;;;;;;;;;;5101069;28;20123;-75
2022/10/28 05:30:06;;;;;;;108.45;87.05;;;;;;;;;;5100242;28;20115;-75
2022/10/28 05:32:32;;;;;;;95.60;77.60;;;;;;;;;;5098186;28;20031;-74
2022/10/28 05:34:57;;;;;;;78.60;63.00;;;;;;;;;;5099250;28;20027;-75
2022/10/28 05:37:22;;;;;;;56.50;44.03;;;;;;;;;;5088263;28;20088;-76
2022/10/28 05:39:48;;;;;;;36.60;29.58;;;;;;;;;;5082350;28;20324;-72
2022/10/28 05:42:13;;;;;;;56.22;45.72;;;;;;;;;;5097928;28;20023;-74
2022/10/28 05:44:38;;;;;;;63.83;51.20;;;;;;;;;;5097717;28;20416;-72
2022/10/28 05:47:04;;;;;;;61.35;43.42;;;;;;;;;;5100856;27;20100;-72
2022/10/28 05:49:29;;;;;;;49.55;40.35;;;;;;;;;;5118948;27;20035;-74
2022/10/28 05:51:54;;;;;;;50.30;36.95;;;;;;;;;;5116153;27;20110;-72
2022/10/28 05:54:20;;;;;;;54.00;41.95;;;;;;;;;;5118571;27;20511;-72
2022/10/28 05:56:45;;;;;;;33.55;28.05;;;;;;;;;;5116406;27;20519;-73
2022/10/28 05:59:11;;;;;;;33.92;26.70;;;;;;;;;;5117739;27;20030;-74
2022/10/28 06:01:36;;;;;;;85.30;71.25;;;;;;;;;;5119895;27;20110;-74
2022/10/28 06:04:01;;;;;;;79.18;68.82;;;;;;;;;;5118051;27;20027;-72
2022/10/28 06:06:27;;;;;;;58.97;49.78;;;;;;;;;;5120265;27;20083;-73
2022/10/28 06:08:52;;;;;;;49.90;44.45;;;;;;;;;;5115152;27;20039;-75
2022/10/28 06:11:17;;;;;;;43.25;37.35;;;;;;;;;;5097212;27;20114;-72
2022/10/28 06:13:43;;;;;;;33.22;28.70;;;;;;;;;;5116385;27;20070;-73
2022/10/28 06:16:08;;;;;;;29.23;24.95;;;;;;;;;;5117214;27;20115;-75
2022/10/28 06:18:33;;;;;;;31.33;24.05;;;;;;;;;;5114635;27;20027;-71
2022/10/28 06:20:59;;;;;;;37.15;24.90;;;;;;;;;;5117603;27;20038;-71
2022/10/28 06:23:25;;;;;;;46.45;29.42;;;;;;;;;;5115939;27;20052;-72
2022/10/28 06:25:54;;;;;;;63.25;40.53;;;;;;;;;;5111876;27;20027;-72
2022/10/28 06:28:20;;;;;;;73.53;43.42;;;;;;;;;;5116723;27;20428;-71
2022/10/28 06:30:46;;;;;;;47.83;33.28;;;;;;;;;;5116001;27;20140;-72
2022/10/28 06:33:11;;;;;;;38.88;28.60;;;;;;;;;;5118501;27;20035;-71
2022/10/28 06:35:37;;;;;;;118.63;84.72;;;;;;;;;;5117748;27;20369;-72
2022/10/28 06:38:02;;;;;;;109.95;85.68;;;;;;;;;;5118630;27;20456;-72
2022/10/28 06:40:28;;;;;;;48.20;35.10;;;;;;;;;;5120381;27;20011;-73
2022/10/28 06:43:00;;;;;;;29.88;23.33;;;;;;;;;;5118518;27;20023;-75
2022/10/28 06:45:26;;;;;;;25.33;22.73;;;;;;;;;;5117439;27;20027;-74
2022/10/28 06:47:57;;;;;;;23.70;20.13;;;;;;;;;;5117547;28;20047;-73
2022/10/28 06:50:23;;;;;;;23.83;21.10;;;;;;;;;;5119852;28;20459;-73
2022/10/28 06:52:49;;;;;;;32.75;28.17;;;;;;;;;;5119182;28;20558;-73
2022/10/28 06:55:14;;;;;;;38.40;28.50;;;;;;;;;;5118426;28;20064;-76
2022/10/28 06:57:39;;;;;;;30.55;24.55;;;;;;;;;;5118733;28;20572;-74
2022/10/28 07:00:05;;;;;;;21.08;17.23;;;;;;;;;;5119506;28;20027;-74
2022/10/28 07:02:30;;;;;;;18.42;16.30;;;;;;;;;;5117045;28;20064;-72
2022/10/28 07:04:56;;;;;;;14.45;12.82;;;;;;;;;;5119232;28;20038;-73
2022/10/28 07:07:21;;;;;;;23.65;21.08;;;;;;;;;;5117552;27;20027;-72
2022/10/28 07:09:46;;;;;;;32.70;29.20;;;;;;;;;;5120779;27;20172;-71
2022/10/28 07:12:12;;;;;;;26.05;23.45;;;;;;;;;;5124468;27;20115;-73
2022/10/28 07:14:37;;;;;;;20.85;18.60;;;;;;;;;;5121332;27;20084;-73
2022/10/28 07:17:03;;;;;;;17.25;15.40;;;;;;;;;;5122702;27;20027;-71
2022/10/28 07:19:28;;;;;;;14.80;12.63;;;;;;;;;;5120970;27;20038;-73
2022/10/28 07:21:53;;;;;;;18.92;15.38;;;;;;;;;;5124237;27;20042;-71
2022/10/28 07:24:19;;;;;;;31.25;19.85;;;;;;;;;;5122352;27;20046;-72
2022/10/28 07:26:47;;;;;;;25.90;18.33;;;;;;;;;;5123364;27;20440;-74
2022/10/28 07:29:12;;;;;;;20.88;15.82;;;;;;;;;;5120625;27;20631;-71
2022/10/28 07:31:37;;;;;;;18.23;13.65;;;;;;;;;;5120989;27;20030;-75
2022/10/28 07:34:03;;;;;;;15.20;13.02;;;;;;;;;;5120851;27;20524;-73
2022/10/28 07:36:28;;;;;;;11.52;9.55;;;;;;;;;;5083789;27;20510;-75
2022/10/28 07:38:53;;;;;;;13.85;9.32;;;;;;;;;;5101112;27;20519;-73
2022/10/28 07:41:20;;;;;;;13.93;12.50;;;;;;;;;;5104074;27;20498;-73
2022/10/28 07:43:45;;;;;;;12.75;9.40;;;;;;;;;;5100006;27;20096;-72
2022/10/28 07:46:11;;;;;;;25.20;12.88;;;;;;;;;;5108911;27;20023;-73
2022/10/28 07:48:37;;;;;;;19.63;12.95;;;;;;;;;;5115020;27;20090;-72
2022/10/28 07:51:03;;;;;;;14.68;12.20;;;;;;;;;;5104844;27;20034;-75
2022/10/28 07:53:29;;;;;;;20.80;14.10;;;;;;;;;;5102101;27;20019;-73
2022/10/28 07:55:58;;;;;;;17.58;13.85;;;;;;;;;;5104098;27;20466;-75
2022/10/28 07:58:23;;;;;;;19.45;13.68;;;;;;;;;;5103817;27;20481;-73
2022/10/28 08:00:49;;;;;;;16.60;12.57;;;;;;;;;;5103714;27;20059;-73
2022/10/28 08:03:14;;;;;;;15.00;12.57;;;;;;;;;;5100367;27;20027;-74
2022/10/28 08:05:40;;;;;;;14.50;12.80;;;;;;;;;;5101427;27;20050;-74
2022/10/28 08:08:05;;;;;;;15.98;12.10;;;;;;;;;;5100259;27;20027;-74
2022/10/28 08:10:30;;;;;;;18.80;11.40;;;;;;;;;;5104615;27;20048;-74
2022/10/28 08:12:59;;;;;;;13.15;10.88;;;;;;;;;;5104776;27;20027;-75
2022/10/28 08:15:25;;;;;;;14.73;11.52;;;;;;;;;;5118173;27;20055;-74
2022/10/28 08:17:51;;;;;;;12.77;9.20;;;;;;;;;;5117703;27;20063;-73
2022/10/28 08:20:16;;;;;;;12.27;9.05;;;;;;;;;;5120385;27;20031;-72
2022/10/28 08:22:42;;;;;;;12.02;10.48;;;;;;;;;;5111508;27;20812;-72
2022/10/28 08:25:07;;;;;;;15.52;10.38;;;;;;;;;;5101299;27;20108;-74
2022/10/28 08:27:32;;;;;;;22.08;12.18;;;;;;;;;;5100286;27;20043;-72
2022/10/28 08:29:58;;;;;;;17.52;11.43;;;;;;;;;;5098806;27;20402;-74
2022/10/28 08:32:23;;;;;;;11.80;10.00;;;;;;;;;;5101454;27;20038;-73
2022/10/28 08:34:49;;;;;;;18.38;11.32;;;;;;;;;;5103343;27;20031;-73
2022/10/28 08:37:15;;;;;;;15.57;10.93;;;;;;;;;;5099479;27;20023;-74
2022/10/28 08:39:40;;;;;;;12.75;11.15;;;;;;;;;;5101871;27;20393;-73
2022/10/28 08:42:17;;;;;;;17.50;14.35;;;;;;;;;;5100506;27;20020;-73
2022/10/28 08:44:45;;;;;;;18.25;13.70;;;;;;;;;;5099096;27;20019;-72
2022/10/28 08:47:28;;;;;;;17.63;12.55;;;;;;;;;;5100045;27;20047;-73
2022/10/28 08:49:55;;;;;;;14.75;12.73;;;;;;;;;;5099720;27;20023;-75
2022/10/28 08:52:20;;;;;;;16.50;12.80;;;;;;;;;;5102897;27;20110;-73
2022/10/28 08:54:49;;;;;;;19.92;13.18;;;;;;;;;;5101918;27;20095;-73
2022/10/28 08:57:20;;;;;;;18.17;11.90;;;;;;;;;;5103493;27;20028;-73
2022/10/28 08:59:48;;;;;;;18.25;12.45;;;;;;;;;;5082020;27;20047;-75
2022/10/28 09:02:20;;;;;;;16.55;13.63;;;;;;;;;;5100076;27;20030;-72
2022/10/28 09:04:45;;;;;;;20.00;12.90;;;;;;;;;;5102124;27;20030;-73
2022/10/28 09:07:18;;;;;;;18.15;14.13;;;;;;;;;;5102502;27;20374;-74
2022/10/28 09:09:44;;;;;;;15.50;13.63;;;;;;;;;;5100187;27;20446;-73
2022/10/28 09:12:14;;;;;;;15.63;12.23;;;;;;;;;;5100584;27;20038;-74
2022/10/28 09:14:40;;;;;;;15.07;13.05;;;;;;;;;;5099160;27;20026;-74
2022/10/28 09:17:21;;;;;;;17.73;13.68;;;;;;;;;;5118533;27;20031;-73
2022/10/28 09:19:48;;;;;;;17.65;12.63;;;;;;;;;;5118272;27;20038;-73
2022/10/28 09:22:14;;;;;;;15.18;11.65;;;;;;;;;;5091118;27;20019;-74
2022/10/28 09:24:53;;;;;;;13.82;10.93;;;;;;;;;;5106242;27;20430;-75
2022/10/28 09:27:28;;;;;;;14.18;11.32;;;;;;;;;;5108796;27;20113;-74
2022/10/28 09:30:15;;;;;;;18.15;10.55;;;;;;;;;;5100270;27;20042;-74
2022/10/28 09:32:40;;;;;;;21.40;14.75;;;;;;;;;;5100955;27;20031;-74
2022/10/28 09:35:12;;;;;;;15.68;11.75;;;;;;;;;;5099396;27;20427;-73
2022/10/28 09:37:49;;;;;;;13.05;10.32;;;;;;;;;;5100745;27;21528;-75
2022/10/28 09:40:17;;;;;;;17.38;12.80;;;;;;;;;;5102394;27;20065;-73
2022/10/28 09:42:48;;;;;;;9.27;6.45;;;;;;;;;;5097734;27;20113;-73
2022/10/28 09:45:17;;;;;;;6.20;4.90;;;;;;;;;;5102807;27;20054;-73
2022/10/28 09:47:44;;;;;;;6.07;4.72;;;;;;;;;;5091474;27;20042;-74
2022/10/28 09:50:15;;;;;;;7.90;4.50;;;;;;;;;;5081182;28;20127;-74
2022/10/28 09:53:00;;;;;;;7.00;4.32;;;;;;;;;;5080279;28;20027;-74
2022/10/28 09:55:26;;;;;;;5.45;4.22;;;;;;;;;;5063464;28;20043;-74
2022/10/28 09:57:51;;;;;;;8.95;5.05;;;;;;;;;;5077366;28;20055;-75
2022/10/28 10:00:17;;;;;;;5.03;2.80;;;;;;;;;;5079116;28;20023;-74
2022/10/28 10:02:43;;;;;;;4.60;2.78;;;;;;;;;;5081080;28;20358;-75
2022/10/28 10:05:13;;;;;;;3.20;2.35;;;;;;;;;;5080905;28;20065;-74
2022/10/28 10:08:04;;;;;;;4.93;4.20;;;;;;;;;;5077129;28;20039;-75
2022/10/28 10:10:43;;;;;;;8.23;6.72;;;;;;;;;;5077478;28;20036;-74
2022/10/28 10:13:10;;;;;;;4.28;3.20;;;;;;;;;;5089422;28;20038;-75
2022/10/28 10:15:55;;;;;;;7.72;4.43;;;;;;;;;;5081122;28;20411;-75
2022/10/28 10:18:23;;;;;;;3.38;2.88;;;;;;;;;;5080408;28;20034;-75
2022/10/28 10:20:50;;;;;;;3.10;2.50;;;;;;;;;;5076173;28;24033;-72
2022/10/28 10:23:29;;;;;;;7.72;6.53;;;;;;;;;;5061857;28;20031;-73
2022/10/28 10:25:56;;;;;;;4.93;3.20;;;;;;;;;;5080164;28;20061;-73
2022/10/28 10:28:22;;;;;;;3.30;3.00;;;;;;;;;;5079486;28;20054;-73
2022/10/28 10:30:50;;;;;;;3.47;2.63;;;;;;;;;;5080255;28;20019;-73
2022/10/28 10:33:24;;;;;;;4.13;3.00;;;;;;;;;;5084711;28;20034;-74
2022/10/28 10:35:54;;;;;;;5.10;3.33;;;;;;;;;;5079054;28;20459;-74
2022/10/28 10:38:19;;;;;;;8.15;3.00;;;;;;;;;;5079713;28;20034;-72
2022/10/28 10:40:49;;;;;;;13.68;4.60;;;;;;;;;;5088231;28;20102;-73
2022/10/28 10:43:20;;;;;;;5.50;3.55;;;;;;;;;;5098014;28;20114;-73
2022/10/28 10:45:59;;;;;;;7.53;4.80;;;;;;;;;;5073523;28;20062;-73
2022/10/28 10:48:25;;;;;;;7.93;5.72;;;;;;;;;;5077278;28;20052;-73
2022/10/28 10:50:51;;;;;;;6.35;4.85;;;;;;;;;;5078347;28;20023;-74
2022/10/28 10:53:26;;;;;;;8.70;4.03;;;;;;;;;;5078387;28;20443;-74
2022/10/28 10:55:56;;;;;;;5.70;3.78;;;;;;;;;;5079093;28;20081;-72
2022/10/28 10:58:23;;;;;;;7.45;3.45;;;;;;;;;;5086899;28;20467;-72
2022/10/28 11:00:51;;;;;;;4.20;2.90;;;;;;;;;;5096472;28;20019;-76
2022/10/28 11:03:24;;;;;;;2.70;2.30;;;;;;;;;;5089289;28;20465;-71
2022/10/28 11:05:55;;;;;;;4.30;3.10;;;;;;;;;;5098793;28;20031;-74
2022/10/28 11:08:41;;;;;;;4.15;3.15;;;;;;;;;;5096462;28;20047;-75
2022/10/28 11:11:17;;;;;;;6.45;2.83;;;;;;;;;;5094994;28;20024;-74
2022/10/28 11:13:43;;;;;;;3.00;2.60;;;;;;;;;;5095755;28;20027;-73
2022/10/28 11:16:19;;;;;;;4.18;2.95;;;;;;;;;;5098344;28;20024;-74
2022/10/28 11:18:46;;;;;;;4.50;2.92;;;;;;;;;;5096800;28;20531;-75
2022/10/28 11:21:31;;;;;;;8.63;3.70;;;;;;;;;;5099770;28;20415;-74
2022/10/28 11:24:20;;;;;;;4.75;2.45;;;;;;;;;;5041914;28;20040;-77
2022/10/28 11:27:08;;;;;;;3.10;2.50;;;;;;;;;;5085095;28;20531;-73
2022/10/28 11:29:34;;;;;;;3.80;2.05;;;;;;;;;;5049820;28;20043;-77
2022/10/28 11:31:59;;;;;;;3.58;2.20;;;;;;;;;;5095527;28;20035;-75
2022/10/28 11:34:36;;;;;;;13.32;10.93;;;;;;;;;;5096620;28;20465;-74
2022/10/28 11:37:11;;;;;;;5.28;4.80;;;;;;;;;;5096441;28;20760;-73
2022/10/28 11:39:42;;;;;;;4.80;3.40;;;;;;;;;;5098362;28;20047;-75
2022/10/28 11:42:19;;;;;;;5.38;3.63;;;;;;;;;;5091317;28;20365;-76
2022/10/28 11:44:52;;;;;;;4.18;2.42;;;;;;;;;;5096512;28;20024;-73
2022/10/28 11:47:36;;;;;;;3.08;2.20;;;;;;;;;;5105582;28;20180;-74
2022/10/28 11:50:04;;;;;;;3.75;2.47;;;;;;;;;;5112209;28;20023;-74
2022/10/28 11:52:29;;;;;;;3.17;2.20;;;;;;;;;;5116489;28;20104;-73
2022/10/28 11:55:13;;;;;;;3.38;1.90;;;;;;;;;;5119629;27;20052;-72
2022/10/28 11:57:57;;;;;;;2.47;1.77;;;;;;;;;;5122466;27;20027;-73
2022/10/28 12:00:40;;;;;;;2.72;1.73;;;;;;;;;;5121075;27;21297;-72
2022/10/28 12:03:18;;;;;;;3.83;2.00;;;;;;;;;;5120292;27;20030;-73
2022/10/28 12:05:49;;;;;;;2.67;1.90;;;;;;;;;;5121910;27;20038;-75
2022/10/28 12:08:23;;;;;;;3.92;2.00;;;;;;;;;;5122405;27;20035;-73
2022/10/28 12:10:54;;;;;;;3.72;1.80;;;;;;;;;;5116981;27;20027;-75
2022/10/28 12:13:19;;;;;;;3.30;1.80;;;;;;;;;;5121427;27;20027;-75
2022/10/28 12:15:44;;;;;;;3.63;1.80;;;;;;;;;;5120649;27;20023;-74
2022/10/28 12:18:10;;;;;;;3.80;1.80;;;;;;;;;;5117102;27;20069;-73
2022/10/28 12:20:41;;;;;;;2.80;1.90;;;;;;;;;;5122026;27;20498;-74
2022/10/28 12:23:11;;;;;;;5.30;1.90;;;;;;;;;;5119538;27;20153;-73
2022/10/28 12:25:38;;;;;;;2.75;1.92;;;;;;;;;;5117955;27;20074;-73
2022/10/28 12:28:06;;;;;;;2.15;1.75;;;;;;;;;;5121993;27;20054;-73
2022/10/28 12:30:34;;;;;;;2.38;1.67;;;;;;;;;;5119475;27;20023;-72
2022/10/28 12:33:12;;;;;;;4.47;1.87;;;;;;;;;;5119830;27;20336;-74
2022/10/28 12:35:40;;;;;;;3.57;2.30;;;;;;;;;;5121602;27;20054;-74
2022/10/28 12:38:09;;;;;;;2.35;1.92;;;;;;;;;;5117877;27;20100;-74
2022/10/28 12:40:42;;;;;;;3.67;2.05;;;;;;;;;;5117880;27;20087;-74
2022/10/28 12:43:30;;;;;;;2.42;2.22;;;;;;;;;;5120289;27;20019;-75
2022/10/28 12:45:56;;;;;;;4.10;2.20;;;;;;;;;;5112224;27;20028;-72
2022/10/28 12:48:24;;;;;;;3.75;2.40;;;;;;;;;;5108959;27;20091;-73
2022/10/28 12:50:59;;;;;;;3.78;2.33;;;;;;;;;;5122396;27;20118;-77
2022/10/28 12:53:31;;;;;;;6.32;5.72;;;;;;;;;;5106088;27;20415;-77
2022/10/28 12:55:58;;;;;;;5.80;5.10;;;;;;;;;;5099906;27;20075;-75
2022/10/28 12:58:30;;;;;;;3.85;2.60;;;;;;;;;;5105338;27;20046;-74
2022/10/28 13:00:59;;;;;;;3.67;2.63;;;;;;;;;;5118518;27;20051;-74
2022/10/28 13:03:24;;;;;;;2.65;2.45;;;;;;;;;;5118837;27;20100;-75
2022/10/28 13:06:02;;;;;;;3.28;2.25;;;;;;;;;;5106737;27;20032;-73
2022/10/28 13:08:27;;;;;;;2.92;2.25;;;;;;;;;;5117124;27;20019;-75
2022/10/28 13:10:57;;;;;;;2.40;2.15;;;;;;;;;;5117974;27;20357;-73
2022/10/28 13:13:34;;;;;;;3.72;2.35;;;;;;;;;;5119599;27;20027;-73
2022/10/28 13:16:05;;;;;;;2.83;2.20;;;;;;;;;;5116020;27;20104;-73
2022/10/28 13:18:46;;;;;;;3.13;2.20;;;;;;;;;;5118574;27;21129;-73
2022/10/28 13:21:17;;;;;;;2.60;2.40;;;;;;;;;;5116409;27;20015;-74
2022/10/28 13:23:44;;;;;;;3.08;2.08;;;;;;;;;;5108826;27;20060;-75
2022/10/28 13:26:26;;;;;;;4.82;2.60;;;;;;;;;;5101893;27;20019;-76
2022/10/28 13:28:53;;;;;;;3.25;2.78;;;;;;;;;;5110565;27;20098;-77
2022/10/28 13:31:19;;;;;;;2.60;2.40;;;;;;;;;;5120778;27;20445;-76
2022/10/28 13:33:56;;;;;;;4.97;2.55;;;;;;;;;;5120270;27;20039;-74
2022/10/28 13:36:22;;;;;;;2.88;2.60;;;;;;;;;;5122502;27;20023;-78
2022/10/28 13:38:55;;;;;;;2.67;2.25;;;;;;;;;;5119912;27;20031;-78
2022/10/28 13:41:31;;;;;;;4.25;2.97;;;;;;;;;;5101764;27;20048;-79
2022/10/28 13:43:57;;;;;;;4.18;3.15;;;;;;;;;;5107645;27;20023;-79
2022/10/28 13:46:41;;;;;;;4.63;4.20;;;;;;;;;;5118379;27;20498;-78
2022/10/28 13:49:21;;;;;;;5.18;3.78;;;;;;;;;;5121825;27;20031;-76
2022/10/28 13:51:49;;;;;;;6.03;3.67;;;;;;;;;;5121617;27;20035;-77
2022/10/28 13:54:24;;;;;;;4.20;3.40;;;;;;;;;;5123480;27;20031;-78
2022/10/28 13:56:50;;;;;;;7.00;2.88;;;;;;;;;;5121420;27;20063;-77
2022/10/28 13:59:15;;;;;;;11.10;4.15;;;;;;;;;;5118204;27;20054;-77
2022/10/28 14:01:41;;;;;;;4.95;2.80;;;;;;;;;;5113828;27;20019;-76
2022/10/28 14:04:20;;;;;;;6.10;2.80;;;;;;;;;;5104135;27;20031;-76
2022/10/28 14:06:46;;;;;;;3.17;2.65;;;;;;;;;;5114890;27;20450;-82
2022/10/28 14:09:22;;;;;;;9.10;3.00;;;;;;;;;;5102609;27;20031;-82
2022/10/28 14:12:02;;;;;;;5.88;2.97;;;;;;;;;;5113354;27;20346;-79
2022/10/28 14:14:27;;;;;;;3.58;2.25;;;;;;;;;;5120978;27;20092;-78
2022/10/28 14:16:53;;;;;;;5.35;2.85;;;;;;;;;;5120756;27;20434;-77
2022/10/28 14:19:21;;;;;;;3.88;2.25;;;;;;;;;;5122167;27;20031;-76
2022/10/28 14:21:52;;;;;;;5.35;2.40;;;;;;;;;;5122195;27;20521;-76
2022/10/28 14:24:32;;;;;;;6.05;2.40;;;;;;;;;;5120043;27;20023;-76
2022/10/28 14:27:07;;;;;;;6.15;2.35;;;;;;;;;;5121524;27;20312;-78
2022/10/28 14:29:42;;;;;;;3.72;1.75;;;;;;;;;;5103793;27;20102;-80
2022/10/28 14:32:26;;;;;;;2.85;1.98;;;;;;;;;;5118132;27;20084;-81
2022/10/28 14:34:53;;;;;;;2.15;1.90;;;;;;;;;;5119983;27;20027;-81
2022/10/28 14:37:34;;;;;;;2.03;1.70;;;;;;;;;;5103653;27;20072;-78